Artemas, Pennsylvania
Current Conditions -  °F | °C
As of 12:29 PM on Wednesday 26 Nov 2014 (Local Time) from KCBE Reporting Station
Overcast Overcast  
Wind Chill:   Ceiling: 300
Heat Index:   Visibility: 0.25mi
Dew Point:   Wind: 0mph
Humidity: 100%   Direction: NA
Pressure: 30.06"   Gusts: NA
Location:  39.75°N, 78.44°W
Report Text: KCBE 261729Z AUTO 00000KT 1/4SM OVC003 01/01 A3006 RMK AO1
Loading
Personal Weather Stations






























Interactive Weather Map New forecast layout! Learn more

10-Day Weather Forecast

Advertisements
Track Severe Weather on mobile